createdAt,value
2022-08-07T00:00:52.387Z,83.48
2022-08-07T00:02:37.594Z,83.69
2022-08-07T00:02:53.718Z,83.38
2022-08-07T00:03:51.327Z,83.28
2022-08-07T00:04:51.823Z,83.59
2022-08-07T00:05:51.299Z,83.79
2022-08-07T00:06:52.414Z,83.99
2022-08-07T00:07:59.647Z,84.30
2022-08-07T00:08:52.286Z,84.54
2022-08-07T00:10:17.794Z,84.64
2022-08-07T00:10:57.619Z,84.54
2022-08-07T00:11:56.069Z,84.13
2022-08-07T00:13:00.195Z,83.93
2022-08-07T00:13:52.224Z,83.73
2022-08-07T00:14:51.608Z,83.73
2022-08-07T00:15:51.499Z,83.73
2022-08-07T00:16:51.177Z,83.73
2022-08-07T00:17:51.152Z,83.93
2022-08-07T00:18:51.163Z,83.83
2022-08-07T00:20:02.497Z,84.03
2022-08-07T00:20:52.524Z,83.93
2022-08-07T00:21:56.706Z,83.93
2022-08-07T00:22:52.074Z,84.03
2022-08-07T00:23:51.055Z,83.87
2022-08-07T00:24:51.062Z,83.87
2022-08-07T00:25:58.166Z,84.17
2022-08-07T00:26:58.909Z,84.38
2022-08-07T00:27:56.369Z,84.58
2022-08-07T00:28:55.657Z,84.88
2022-08-07T00:29:51.984Z,85.19
2022-08-07T00:30:50.989Z,85.29
2022-08-07T00:31:51.303Z,85.60
2022-08-07T00:32:51.334Z,85.90
2022-08-07T00:33:50.944Z,86.10
2022-08-07T00:34:50.934Z,86.00
2022-08-07T00:35:50.904Z,86.00
2022-08-07T00:36:50.901Z,85.70
2022-08-07T00:37:51.221Z,86.10
2022-08-07T00:38:50.912Z,86.21
2022-08-07T00:39:54.505Z,86.10
2022-08-07T00:40:50.873Z,86.25
2022-08-07T00:41:53.442Z,86.25
2022-08-07T00:42:50.822Z,86.31
2022-08-07T00:44:00.888Z,86.00
2022-08-07T00:44:57.798Z,86.41
2022-08-07T00:45:57.783Z,86.00
2022-08-07T00:46:59.639Z,86.61
2022-08-07T00:48:08.915Z,86.92
2022-08-07T00:50:21.251Z,87.67
2022-08-07T00:51:07.935Z,87.87
2022-08-07T00:52:07.903Z,87.47
2022-08-07T00:53:09.301Z,87.87
2022-08-07T00:54:07.888Z,87.77
2022-08-07T00:55:10.607Z,87.47
2022-08-07T00:56:13.971Z,87.57
2022-08-07T00:57:07.833Z,87.16
2022-08-07T00:58:00.826Z,86.86
2022-08-07T00:59:00.822Z,86.45
2022-08-07T01:00:00.789Z,87.06
2022-08-07T01:01:01.232Z,85.60
2022-08-07T01:02:09.109Z,85.49
2022-08-07T01:03:01.773Z,85.80
2022-08-07T01:04:00.752Z,84.07
2022-08-07T01:05:00.744Z,83.15
2022-08-07T01:06:00.726Z,82.54
2022-08-07T01:07:01.096Z,82.75
2022-08-07T01:08:00.696Z,83.46
2022-08-07T01:09:01.487Z,84.48
2022-08-07T01:10:05.201Z,83.76
2022-08-07T01:12:23.646Z,84.17
2022-08-07T01:12:27.908Z,84.48
2022-08-07T01:13:01.765Z,82.04
2022-08-07T01:14:00.694Z,82.14
2022-08-07T01:15:01.054Z,80.21
2022-08-07T01:16:05.873Z,80.17
2022-08-07T01:17:01.574Z,80.07
2022-08-07T01:18:01.914Z,80.27
2022-08-07T01:19:00.564Z,81.09
2022-08-07T01:20:00.563Z,78.44
2022-08-07T01:21:00.530Z,81.09
2022-08-07T01:22:00.552Z,81.49
2022-08-07T01:23:12.438Z,82.40
2022-08-07T01:24:01.513Z,81.90
2022-08-07T01:25:00.472Z,82.10
2022-08-07T01:26:00.462Z,82.00
2022-08-07T01:27:00.467Z,83.01
2022-08-07T01:28:00.858Z,82.92
2022-08-07T01:29:00.459Z,83.12
2022-08-07T01:30:00.757Z,81.90
2022-08-07T01:31:00.435Z,81.73
2022-08-07T01:32:00.427Z,80.31
2022-08-07T01:33:00.372Z,76.95
2022-08-07T01:34:00.801Z,79.09
2022-08-07T01:35:00.340Z,79.70
2022-08-07T01:36:06.446Z,81.33
2022-08-07T01:37:01.320Z,81.63
2022-08-07T01:38:00.312Z,81.93
2022-08-07T01:39:00.366Z,81.33
2022-08-07T01:40:00.844Z,81.02
2022-08-07T01:41:00.278Z,80.82
2022-08-07T01:42:07.554Z,80.72
2022-08-07T01:43:01.249Z,80.76
2022-08-07T01:44:00.247Z,80.76
2022-08-07T01:45:00.225Z,80.85
2022-08-07T01:46:00.651Z,80.55
2022-08-07T01:47:01.139Z,80.24
2022-08-07T01:48:20.223Z,78.21
2022-08-07T01:49:02.299Z,77.40
2022-08-07T01:50:00.636Z,77.50
2022-08-07T01:51:00.145Z,76.89
2022-08-07T01:52:04.765Z,77.40
2022-08-07T01:53:00.126Z,76.89
2022-08-07T01:54:09.685Z,77.20
2022-08-07T01:55:01.188Z,77.67
2022-08-07T01:56:00.094Z,78.08
2022-08-07T01:57:00.068Z,77.47
2022-08-07T01:58:01.170Z,78.17
2022-08-07T01:59:01.066Z,78.17
2022-08-07T02:00:00.069Z,77.97
2022-08-07T02:01:09.924Z,77.70
2022-08-07T02:02:04.513Z,77.91
2022-08-07T02:03:19.160Z,78.82
2022-08-07T02:04:01.050Z,79.43
2022-08-07T02:04:59.966Z,79.94
2022-08-07T02:06:01.226Z,80.35
2022-08-07T02:06:59.935Z,80.76
2022-08-07T02:07:59.953Z,81.77
2022-08-07T02:09:00.333Z,82.21
2022-08-07T02:09:59.904Z,83.03
2022-08-07T02:10:59.881Z,82.73
2022-08-07T02:12:03.827Z,83.23
2022-08-07T02:13:01.178Z,83.13
2022-08-07T02:14:02.477Z,84.05
2022-08-07T02:15:00.830Z,83.95
2022-08-07T02:15:59.843Z,83.54
2022-08-07T02:16:59.822Z,83.64
2022-08-07T02:18:00.003Z,83.03
2022-08-07T02:18:59.872Z,83.44
2022-08-07T02:20:07.382Z,83.07
2022-08-07T02:21:00.809Z,83.27
2022-08-07T02:22:00.778Z,83.37
2022-08-07T02:23:00.045Z,83.48
2022-08-07T02:23:59.742Z,82.66
2022-08-07T02:24:59.750Z,82.56
2022-08-07T02:26:31.856Z,82.76
2022-08-07T02:27:01.456Z,83.07
2022-08-07T02:27:59.681Z,82.76
2022-08-07T02:29:00.067Z,82.35
2022-08-07T02:29:59.651Z,82.60
2022-08-07T02:30:59.650Z,81.79
2022-08-07T02:32:00.971Z,81.99
2022-08-07T02:33:04.032Z,82.19
2022-08-07T02:34:10.934Z,82.80
2022-08-07T02:35:00.698Z,83.72
2022-08-07T02:36:29.684Z,83.42
2022-08-07T02:37:00.600Z,83.01
2022-08-07T02:38:00.026Z,83.72
2022-08-07T02:38:59.673Z,83.92
2022-08-07T02:40:02.053Z,84.64
2022-08-07T02:41:00.632Z,84.84
2022-08-07T02:41:59.532Z,84.74
2022-08-07T02:42:59.479Z,85.28
2022-08-07T02:43:59.699Z,85.80
2022-08-07T02:44:59.485Z,85.39
2022-08-07T02:46:01.840Z,83.96
2022-08-07T02:46:59.451Z,83.56
2022-08-07T02:47:59.454Z,83.86
2022-08-07T02:48:59.410Z,84.67
2022-08-07T02:50:00.217Z,84.06
2022-08-07T02:50:59.382Z,83.76
2022-08-07T02:51:59.396Z,83.45
2022-08-07T02:53:00.795Z,82.43
2022-08-07T02:53:59.366Z,82.23
2022-08-07T02:54:59.337Z,82.33
2022-08-07T02:56:03.014Z,82.13
2022-08-07T02:57:00.324Z,82.03
2022-08-07T02:57:59.815Z,81.72
2022-08-07T02:58:59.323Z,82.03
2022-08-07T03:00:01.174Z,82.60
2022-08-07T03:00:59.329Z,81.93
2022-08-07T03:02:02.174Z,81.01
2022-08-07T03:02:59.281Z,81.93
2022-08-07T03:03:59.233Z,81.72
2022-08-07T03:04:59.220Z,81.72
2022-08-07T03:05:59.297Z,81.52
2022-08-07T03:06:59.193Z,80.97
2022-08-07T03:08:06.851Z,80.87
2022-08-07T03:09:00.193Z,80.87
2022-08-07T03:09:59.193Z,80.56
2022-08-07T03:10:59.182Z,80.77
2022-08-07T03:12:02.726Z,80.66
2022-08-07T03:12:59.105Z,79.71
2022-08-07T03:14:01.778Z,79.50
2022-08-07T03:15:02.215Z,78.80
2022-08-07T03:16:00.081Z,78.25
2022-08-07T03:16:59.061Z,77.94
2022-08-07T03:17:59.060Z,77.53
2022-08-07T03:18:59.042Z,77.23
2022-08-07T03:19:59.428Z,76.99
2022-08-07T03:20:59.020Z,76.59
2022-08-07T03:21:58.999Z,76.48
2022-08-07T03:22:59.009Z,76.59
2022-08-07T03:24:19.600Z,76.59
2022-08-07T03:25:00.441Z,76.68
2022-08-07T03:25:59.853Z,77.20
2022-08-07T03:26:59.612Z,77.60
2022-08-07T03:28:09.202Z,77.91
2022-08-07T03:29:00.020Z,78.01
2022-08-07T03:29:58.924Z,78.21
2022-08-07T03:30:59.319Z,78.11
2022-08-07T03:31:58.882Z,78.31
2022-08-07T03:32:59.154Z,78.66
2022-08-07T03:33:58.848Z,78.35
2022-08-07T03:35:18.160Z,78.86
2022-08-07T03:35:59.837Z,79.47
2022-08-07T03:36:58.814Z,78.76
2022-08-07T03:37:58.813Z,78.55
2022-08-07T03:38:58.805Z,79.16
2022-08-07T03:40:14.868Z,79.27
2022-08-07T03:40:59.814Z,79.47
2022-08-07T03:41:58.913Z,79.47
2022-08-07T03:42:58.833Z,79.71
2022-08-07T03:43:58.788Z,79.91
2022-08-07T03:44:58.718Z,79.91
2022-08-07T03:45:59.145Z,79.71
2022-08-07T03:47:14.177Z,80.22
2022-08-07T03:47:59.713Z,80.22
2022-08-07T03:49:02.160Z,80.02
2022-08-07T03:49:58.658Z,80.52
2022-08-07T03:50:58.635Z,80.36
2022-08-07T03:52:01.294Z,80.66
2022-08-07T03:52:58.611Z,81.99
2022-08-07T03:54:33.398Z,81.38
2022-08-07T03:55:06.803Z,82.29
2022-08-07T03:56:04.416Z,82.80
2022-08-07T03:57:07.018Z,81.68
2022-08-07T03:58:32.516Z,83.42
2022-08-07T03:59:08.829Z,83.01
2022-08-07T04:00:01.884Z,83.11
2022-08-07T04:01:00.343Z,83.01
2022-08-07T04:01:58.558Z,82.70
2022-08-07T04:02:58.870Z,83.15
2022-08-07T04:03:58.491Z,83.15
2022-08-07T04:04:58.461Z,83.25
2022-08-07T04:05:58.696Z,83.45
2022-08-07T04:06:58.490Z,83.86
2022-08-07T04:07:58.438Z,83.96
2022-08-07T04:08:58.825Z,84.06
2022-08-07T04:09:58.400Z,83.65
2022-08-07T04:12:21.564Z,83.15
2022-08-07T04:12:23.627Z,81.01
2022-08-07T04:12:59.369Z,81.82
2022-08-07T04:14:10.627Z,81.62
2022-08-07T04:15:00.242Z,81.72
2022-08-07T04:15:58.336Z,81.21
2022-08-07T04:16:58.993Z,80.97
2022-08-07T04:18:58.180Z,80.66
2022-08-07T04:19:01.613Z,80.56
2022-08-07T04:19:59.717Z,81.07
2022-08-07T04:20:58.317Z,79.95
2022-08-07T04:22:05.413Z,80.87
2022-08-07T04:23:01.368Z,80.77
2022-08-07T04:24:06.951Z,80.56
2022-08-07T04:25:01.384Z,81.27
2022-08-07T04:25:58.219Z,81.38
2022-08-07T04:26:58.222Z,81.58
2022-08-07T04:28:00.340Z,81.58
2022-08-07T04:28:58.613Z,81.58
2022-08-07T04:30:02.716Z,81.17
2022-08-07T04:30:59.630Z,81.17
2022-08-07T04:32:03.374Z,81.27
2022-08-07T04:32:59.198Z,81.27
2022-08-07T04:33:58.126Z,81.68
2022-08-07T04:34:58.104Z,81.58
2022-08-07T04:35:58.116Z,81.79
2022-08-07T04:36:58.401Z,82.09
2022-08-07T04:38:06.461Z,81.68
2022-08-07T04:38:59.169Z,81.48
2022-08-07T04:39:58.145Z,81.79
2022-08-07T04:40:58.017Z,82.09
2022-08-07T04:41:58.015Z,82.40
2022-08-07T04:43:01.705Z,82.90
2022-08-07T04:44:12.292Z,82.56
2022-08-07T04:45:02.860Z,81.85
2022-08-07T04:46:01.836Z,81.44
2022-08-07T04:47:04.652Z,81.54
2022-08-07T04:48:10.566Z,82.05
2022-08-07T04:48:58.933Z,82.56
2022-08-07T04:50:03.704Z,82.76
2022-08-07T04:50:58.911Z,82.76
2022-08-07T04:51:57.873Z,82.56
2022-08-07T04:52:57.890Z,82.26
2022-08-07T04:54:05.608Z,82.66
2022-08-07T04:54:58.880Z,83.27
2022-08-07T04:58:10.640Z,82.87
2022-08-07T04:58:11.959Z,83.27
2022-08-07T04:58:12.861Z,82.87
2022-08-07T05:00:08.059Z,82.56
2022-08-07T05:00:12.633Z,82.01
2022-08-07T05:00:58.819Z,82.52
2022-08-07T05:01:57.771Z,82.52
2022-08-07T05:02:57.783Z,81.91
2022-08-07T05:04:06.742Z,81.30
2022-08-07T05:04:59.121Z,81.20
2022-08-07T05:05:57.785Z,81.06
2022-08-07T05:06:57.687Z,80.96
2022-08-07T05:07:57.679Z,80.55
2022-08-07T05:09:00.575Z,80.45
2022-08-07T05:09:57.670Z,80.35
2022-08-07T05:10:58.590Z,80.24
2022-08-07T05:12:02.284Z,80.21
2022-08-07T05:13:01.845Z,80.21
2022-08-07T05:14:52.899Z,79.90
2022-08-07T05:15:04.599Z,79.60
2022-08-07T05:15:58.952Z,79.19
2022-08-07T05:16:57.550Z,79.25
2022-08-07T05:17:57.737Z,79.05
2022-08-07T05:18:57.647Z,78.44
2022-08-07T05:19:57.543Z,78.95
2022-08-07T05:20:57.498Z,78.61
2022-08-07T05:21:59.979Z,78.61
2022-08-07T05:22:57.497Z,77.49
2022-08-07T05:23:57.457Z,77.80
2022-08-07T05:25:02.120Z,77.59
2022-08-07T05:26:13.787Z,77.56
2022-08-07T05:26:58.893Z,77.66
2022-08-07T05:28:03.526Z,77.36
2022-08-07T05:28:58.436Z,77.36
2022-08-07T05:29:57.386Z,77.01
2022-08-07T05:30:57.395Z,77.42
2022-08-07T05:31:57.373Z,77.12
2022-08-07T05:32:57.756Z,77.12
2022-08-07T05:34:04.390Z,76.87
2022-08-07T05:34:58.335Z,76.98
2022-08-07T05:35:57.333Z,77.08
2022-08-07T05:36:57.346Z,76.78
2022-08-07T05:38:09.010Z,76.57
2022-08-07T05:39:09.009Z,76.33
2022-08-07T05:40:16.646Z,76.43
2022-08-07T05:40:58.299Z,76.43
2022-08-07T05:42:02.237Z,76.43
2022-08-07T05:42:58.222Z,76.23
2022-08-07T05:44:11.779Z,76.29
2022-08-07T05:45:14.314Z,76.09
2022-08-07T05:45:58.180Z,76.60
2022-08-07T05:46:57.194Z,76.60
2022-08-07T05:48:02.038Z,76.80
2022-08-07T05:48:59.686Z,76.40
2022-08-07T05:49:57.124Z,76.36
2022-08-07T05:50:57.549Z,76.36
2022-08-07T05:51:57.110Z,76.26
2022-08-07T05:52:57.089Z,76.03
2022-08-07T05:54:13.643Z,76.03
2022-08-07T05:54:58.771Z,75.82
2022-08-07T05:56:03.869Z,75.52
2022-08-07T05:56:58.712Z,75.62
2022-08-07T05:57:57.032Z,75.82
2022-08-07T05:58:57.021Z,75.38
2022-08-07T05:59:57.738Z,75.28
2022-08-07T06:00:56.990Z,75.58
2022-08-07T06:01:57.539Z,75.89
2022-08-07T06:02:56.969Z,75.85
2022-08-07T06:04:01.100Z,75.95
2022-08-07T06:04:56.928Z,75.75
2022-08-07T06:05:56.899Z,75.85
2022-08-07T06:07:03.920Z,75.95
2022-08-07T06:08:13.204Z,76.05
2022-08-07T06:08:58.204Z,75.92
2022-08-07T06:10:05.526Z,75.81
2022-08-07T06:10:57.869Z,76.02
2022-08-07T06:11:56.836Z,75.48
2022-08-07T06:12:56.830Z,75.24
2022-08-07T06:14:12.076Z,73.96
2022-08-07T06:14:58.794Z,71.44
2022-08-07T06:15:57.791Z,69.12
2022-08-07T06:16:57.174Z,67.55
2022-08-07T06:17:56.747Z,66.28
2022-08-07T06:18:56.848Z,65.44
2022-08-07T06:20:03.303Z,64.15
2022-08-07T06:22:14.462Z,62.81
2022-08-07T06:22:15.470Z,63.24
2022-08-07T06:23:02.139Z,63.51
2022-08-07T06:24:37.478Z,62.88
2022-08-07T06:25:01.405Z,61.42
2022-08-07T06:25:57.179Z,61.09
2022-08-07T06:26:56.645Z,60.77
2022-08-07T06:28:01.386Z,60.33
2022-08-07T06:28:57.607Z,60.41
2022-08-07T06:29:56.634Z,60.44
2022-08-07T06:30:58.308Z,60.41
2022-08-07T06:31:56.567Z,59.95
2022-08-07T06:32:56.557Z,59.02
2022-08-07T06:33:56.556Z,58.07
2022-08-07T06:34:56.567Z,57.70
2022-08-07T06:36:12.179Z,58.83
2022-08-07T06:36:57.566Z,59.09
2022-08-07T06:37:56.496Z,58.07
2022-08-07T06:38:58.988Z,57.45
2022-08-07T06:40:13.427Z,57.32
2022-08-07T06:40:57.585Z,57.54
2022-08-07T06:42:02.960Z,56.75
2022-08-07T06:42:57.466Z,57.07
2022-08-07T06:43:59.412Z,58.29
2022-08-07T06:44:57.413Z,58.53
2022-08-07T06:46:00.765Z,59.12
2022-08-07T06:47:10.153Z,58.62
2022-08-07T06:47:59.461Z,58.80
2022-08-07T06:48:56.603Z,58.92
2022-08-07T06:49:58.513Z,59.02
2022-08-07T06:50:56.334Z,59.02
2022-08-07T06:51:59.479Z,60.08
2022-08-07T06:52:57.303Z,59.85
2022-08-07T06:55:28.188Z,59.19
2022-08-07T06:55:33.474Z,59.09
2022-08-07T06:56:01.274Z,58.10
2022-08-07T06:56:57.286Z,58.00
2022-08-07T06:57:57.222Z,58.92
2022-08-07T07:00:13.246Z,59.48
2022-08-07T07:00:14.718Z,59.48
2022-08-07T07:00:57.223Z,59.25
2022-08-07T07:01:56.359Z,58.53
2022-08-07T07:02:57.380Z,57.10
2022-08-07T07:04:04.246Z,56.98
2022-08-07T07:04:57.156Z,56.35
2022-08-07T07:06:03.486Z,55.76
2022-08-07T07:07:01.353Z,55.43
2022-08-07T07:07:59.946Z,55.03
2022-08-07T07:08:58.172Z,55.76
2022-08-07T07:09:56.117Z,55.35
2022-08-07T07:10:56.811Z,54.86
2022-08-07T07:12:08.937Z,55.28
2022-08-07T07:12:57.084Z,55.76
2022-08-07T07:14:01.444Z,55.03
2022-08-07T07:14:57.637Z,54.36
2022-08-07T07:15:56.007Z,54.13
2022-08-07T07:16:56.049Z,53.34
2022-08-07T07:17:55.987Z,53.74
2022-08-07T07:18:56.001Z,53.11
2022-08-07T07:19:59.056Z,52.51
2022-08-07T07:20:56.287Z,52.59
2022-08-07T07:22:11.762Z,52.02
2022-08-07T07:24:05.385Z,53.44
2022-08-07T07:24:09.211Z,52.72
2022-08-07T07:25:02.818Z,52.12
2022-08-07T07:26:35.579Z,52.69
2022-08-07T07:26:56.885Z,51.77
2022-08-07T07:28:02.283Z,51.15
2022-08-07T07:29:38.931Z,50.93
2022-08-07T07:30:10.136Z,50.53
2022-08-07T07:30:56.838Z,49.96
2022-08-07T07:31:56.107Z,50.60
2022-08-07T07:32:55.845Z,51.62
2022-08-07T07:33:57.220Z,51.50
2022-08-07T07:34:55.779Z,51.15
2022-08-07T07:36:12.601Z,49.86
2022-08-07T07:36:57.078Z,50.23
2022-08-07T07:38:02.239Z,48.74
2022-08-07T07:38:56.725Z,49.16
2022-08-07T07:39:55.789Z,49.78
2022-08-07T07:40:58.841Z,49.36
2022-08-07T07:42:13.037Z,49.26
2022-08-07T07:42:57.147Z,48.17
2022-08-07T07:44:16.750Z,48.69
2022-08-07T07:44:56.646Z,48.77
2022-08-07T07:46:37.676Z,48.72
2022-08-07T07:47:02.184Z,46.93
2022-08-07T07:47:56.762Z,47.13
2022-08-07T07:48:59.905Z,47.31
2022-08-07T07:50:34.517Z,46.83
2022-08-07T07:50:56.615Z,46.98
2022-08-07T07:51:57.986Z,47.53
2022-08-07T07:52:55.594Z,47.03
2022-08-07T07:53:55.537Z,46.16
2022-08-07T07:54:55.783Z,46.16
2022-08-07T07:55:57.724Z,46.72
2022-08-07T07:56:57.431Z,47.44
2022-08-07T07:57:58.448Z,47.25
2022-08-07T07:58:55.487Z,47.47
2022-08-07T07:59:55.466Z,48.26
2022-08-07T08:00:55.906Z,47.69
2022-08-07T08:02:03.205Z,49.18
2022-08-07T08:03:01.113Z,48.68
2022-08-07T08:04:09.856Z,48.79
2022-08-07T08:04:56.492Z,49.58
2022-08-07T08:05:55.783Z,48.74
2022-08-07T08:06:55.805Z,47.70
2022-08-07T08:08:00.867Z,46.68
2022-08-07T08:08:56.497Z,45.71
2022-08-07T08:10:05.764Z,45.55
2022-08-07T08:10:56.336Z,46.33
2022-08-07T08:12:02.986Z,45.39
2022-08-07T08:12:59.659Z,44.48
2022-08-07T08:13:55.861Z,44.64
2022-08-07T08:14:55.448Z,45.65
2022-08-07T08:15:55.305Z,45.57
2022-08-07T08:16:55.368Z,46.05
2022-08-07T08:17:58.675Z,46.25
2022-08-07T08:18:56.646Z,46.37
2022-08-07T08:20:18.780Z,46.87
2022-08-07T08:20:56.200Z,46.20
2022-08-07T08:22:03.656Z,46.49
2022-08-07T08:22:56.474Z,46.17
2022-08-07T08:23:55.184Z,45.87
2022-08-07T08:25:04.829Z,46.89
2022-08-07T08:25:56.288Z,46.69
2022-08-07T08:26:55.359Z,46.25
2022-08-07T08:27:57.346Z,46.75
2022-08-07T08:28:56.199Z,46.27
2022-08-07T08:29:55.886Z,47.07
2022-08-07T08:30:55.742Z,45.65
2022-08-07T08:32:17.055Z,45.67
2022-08-07T08:32:56.188Z,46.99
2022-08-07T08:33:55.833Z,47.09
2022-08-07T08:34:55.478Z,47.47
2022-08-07T08:35:55.006Z,47.25
2022-08-07T08:36:57.579Z,46.42
2022-08-07T08:38:01.207Z,46.33
2022-08-07T08:38:56.109Z,46.33
2022-08-07T08:39:58.640Z,47.02
2022-08-07T08:40:54.985Z,45.93
2022-08-07T08:41:57.218Z,46.23
2022-08-07T08:42:54.936Z,45.95
2022-08-07T08:43:58.739Z,47.09
2022-08-07T08:44:54.924Z,47.19
2022-08-07T08:45:59.353Z,46.81
2022-08-07T08:46:56.480Z,47.14
2022-08-07T08:47:55.314Z,47.63
2022-08-07T08:48:54.908Z,47.44
2022-08-07T08:50:02.482Z,47.44
2022-08-07T08:50:55.840Z,47.36
2022-08-07T08:52:14.067Z,47.56
2022-08-07T08:52:56.068Z,48.16
2022-08-07T08:53:54.836Z,48.05
2022-08-07T08:54:54.777Z,48.25
2022-08-07T08:55:58.984Z,48.63
2022-08-07T08:56:54.739Z,47.74
2022-08-07T08:57:54.727Z,48.23
2022-08-07T08:58:55.085Z,47.53
2022-08-07T08:59:54.717Z,48.23
2022-08-07T09:00:54.696Z,47.51
2022-08-07T09:01:58.479Z,46.73
2022-08-07T09:02:57.825Z,45.94
2022-08-07T09:03:55.521Z,46.16
2022-08-07T09:04:54.813Z,47.14
2022-08-07T09:05:54.696Z,46.04
2022-08-07T09:06:54.689Z,45.64
2022-08-07T09:07:58.175Z,46.34
2022-08-07T09:08:54.596Z,45.22
2022-08-07T09:09:57.219Z,45.32
2022-08-07T09:10:54.799Z,44.92
2022-08-07T09:12:02.857Z,45.20
2022-08-07T09:12:55.716Z,45.10
2022-08-07T09:13:54.568Z,45.78
2022-08-07T09:14:58.786Z,43.98
2022-08-07T09:16:24.603Z,44.80
2022-08-07T09:16:55.510Z,45.50
2022-08-07T09:17:59.596Z,43.60
2022-08-07T09:18:58.797Z,43.80
2022-08-07T09:19:55.365Z,43.43
2022-08-07T09:20:58.453Z,42.71
2022-08-07T09:22:09.849Z,43.41
2022-08-07T09:24:32.612Z,42.81
2022-08-07T09:24:33.254Z,42.51
2022-08-07T09:25:00.469Z,42.31
2022-08-07T09:25:55.384Z,42.91
2022-08-07T09:26:57.067Z,42.41
2022-08-07T09:28:01.310Z,42.31
2022-08-07T09:30:04.150Z,42.61
2022-08-07T09:30:06.562Z,43.01
2022-08-07T09:30:55.337Z,42.21
2022-08-07T09:31:54.306Z,42.41
2022-08-07T09:32:54.347Z,43.23
2022-08-07T09:33:57.851Z,42.71
2022-08-07T09:34:54.333Z,42.43
2022-08-07T09:36:05.468Z,42.13
2022-08-07T09:36:55.256Z,42.01
2022-08-07T09:37:54.596Z,42.01
2022-08-07T09:38:54.289Z,41.42
2022-08-07T09:39:57.839Z,42.01
2022-08-07T09:40:54.209Z,43.01
2022-08-07T09:41:58.969Z,43.11
2022-08-07T09:42:55.801Z,43.49
2022-08-07T09:44:06.032Z,41.47
2022-08-07T09:47:27.347Z,41.67
2022-08-07T09:47:50.341Z,41.36
2022-08-07T09:47:50.719Z,40.06
2022-08-07T09:48:01.198Z,40.18
2022-08-07T09:50:02.567Z,40.40
2022-08-07T09:50:55.465Z,40.32
2022-08-07T09:52:16.254Z,40.52
2022-08-07T09:52:55.055Z,39.72
2022-08-07T09:53:59.293Z,40.90
2022-08-07T09:54:55.044Z,39.50
2022-08-07T09:56:03.863Z,39.32
2022-08-07T09:56:55.366Z,40.42
2022-08-07T09:57:53.985Z,40.32
2022-08-07T09:58:53.958Z,40.22
2022-08-07T10:00:00.351Z,40.02
2022-08-07T10:00:54.956Z,40.62
2022-08-07T10:01:54.542Z,41.09
2022-08-07T10:02:55.648Z,40.98
2022-08-07T10:04:05.252Z,40.48
2022-08-07T10:04:57.113Z,40.10
2022-08-07T10:06:00.292Z,40.40
2022-08-07T10:06:55.783Z,41.30
2022-08-07T10:07:55.461Z,39.90
2022-08-07T10:08:53.917Z,40.30
2022-08-07T10:10:00.400Z,40.10
2022-08-07T10:11:59.944Z,40.30
2022-08-07T10:12:03.154Z,41.17
2022-08-07T10:12:54.823Z,40.58
2022-08-07T10:14:00.940Z,40.38
2022-08-07T10:14:55.380Z,40.18
2022-08-07T10:15:53.799Z,39.98
2022-08-07T10:16:53.747Z,39.89
2022-08-07T10:18:03.014Z,39.69
2022-08-07T10:18:54.722Z,40.38
2022-08-07T10:19:53.734Z,39.69
2022-08-07T10:20:53.807Z,39.29
2022-08-07T10:22:15.421Z,39.48
2022-08-07T10:22:54.655Z,39.97
2022-08-07T10:24:04.748Z,39.17
2022-08-07T10:24:54.670Z,40.06
2022-08-07T10:25:53.673Z,39.95
2022-08-07T10:26:53.851Z,40.34
2022-08-07T10:27:53.688Z,39.54
2022-08-07T10:28:53.596Z,39.76
2022-08-07T10:29:53.634Z,40.34
2022-08-07T10:30:53.584Z,39.84
2022-08-07T10:31:53.963Z,39.25
2022-08-07T10:32:54.240Z,40.05
2022-08-07T10:34:15.027Z,39.15
2022-08-07T10:34:54.527Z,39.05
2022-08-07T10:35:56.971Z,39.95
2022-08-07T10:36:54.917Z,38.85
2022-08-07T10:38:15.559Z,39.07
2022-08-07T10:38:54.765Z,38.47
2022-08-07T10:40:02.837Z,39.17
2022-08-07T10:40:54.441Z,39.17
2022-08-07T10:42:01.702Z,40.05
2022-08-07T10:42:54.716Z,39.53
2022-08-07T10:43:53.435Z,37.86
2022-08-07T10:44:54.648Z,38.26
2022-08-07T10:45:58.043Z,39.05
2022-08-07T10:46:54.346Z,39.35
2022-08-07T10:47:56.550Z,38.85
2022-08-07T10:48:54.674Z,38.35
2022-08-07T10:49:53.324Z,38.83
2022-08-07T10:50:53.307Z,38.75
2022-08-07T10:52:02.015Z,38.85
2022-08-07T10:52:54.316Z,39.25
2022-08-07T10:53:57.169Z,38.35
2022-08-07T10:55:01.643Z,39.05
2022-08-07T10:55:54.244Z,39.75
2022-08-07T10:56:53.216Z,39.27
2022-08-07T10:57:56.282Z,39.76
2022-08-07T10:58:59.777Z,39.57
2022-08-07T10:59:54.217Z,39.47
2022-08-07T11:00:56.515Z,39.86
2022-08-07T11:02:04.765Z,40.64
2022-08-07T11:02:54.291Z,40.22
2022-08-07T11:04:05.375Z,39.83
2022-08-07T11:04:54.201Z,39.63
2022-08-07T11:05:53.706Z,39.81
2022-08-07T11:06:53.258Z,38.92
2022-08-07T11:07:59.367Z,38.22
2022-08-07T11:08:54.152Z,38.02
2022-08-07T11:10:09.433Z,38.73
2022-08-07T11:10:59.459Z,39.54
2022-08-07T11:11:54.096Z,39.43
2022-08-07T11:13:02.003Z,39.63
2022-08-07T11:14:44.159Z,38.64
2022-08-07T11:15:00.117Z,39.03
2022-08-07T11:15:54.811Z,39.21
2022-08-07T11:16:55.799Z,39.11
2022-08-07T11:17:54.199Z,39.53
2022-08-07T11:18:52.999Z,39.23
2022-08-07T11:19:53.101Z,39.33
2022-08-07T11:20:52.962Z,39.73
2022-08-07T11:21:53.367Z,40.05
2022-08-07T11:22:52.934Z,39.65
2022-08-07T11:23:52.997Z,40.05
2022-08-07T11:24:52.939Z,40.62
2022-08-07T11:25:52.961Z,39.83
2022-08-07T11:26:52.871Z,39.53
2022-08-07T11:28:01.398Z,40.50
2022-08-07T11:28:55.512Z,40.09
2022-08-07T11:29:53.889Z,39.79
2022-08-07T11:30:53.854Z,38.71
2022-08-07T11:31:52.915Z,38.92
2022-08-07T11:32:52.905Z,40.70
2022-08-07T11:33:59.161Z,39.43
2022-08-07T11:34:53.842Z,39.63
2022-08-07T11:35:59.549Z,39.41
2022-08-07T11:36:53.879Z,40.78
2022-08-07T11:37:57.837Z,39.69
2022-08-07T11:38:53.941Z,39.97
2022-08-07T11:40:00.061Z,39.55
2022-08-07T11:40:53.754Z,39.23
2022-08-07T11:42:00.447Z,39.04
2022-08-07T11:42:54.157Z,38.17
2022-08-07T11:44:11.457Z,39.37
2022-08-07T11:44:57.673Z,39.28
2022-08-07T11:45:53.602Z,39.49
2022-08-07T11:46:52.700Z,39.28
2022-08-07T11:47:56.280Z,38.58
2022-08-07T11:49:51.444Z,38.96
2022-08-07T11:50:31.408Z,39.75
2022-08-07T11:50:57.117Z,39.65
2022-08-07T11:51:52.543Z,39.85
2022-08-07T11:52:52.585Z,40.44
2022-08-07T11:54:01.709Z,40.03
2022-08-07T11:54:55.017Z,38.84
2022-08-07T11:56:15.590Z,40.33
2022-08-07T11:56:56.182Z,39.23
2022-08-07T11:57:59.818Z,38.62
2022-08-07T11:58:53.496Z,39.61
2022-08-07T12:00:10.042Z,39.20
2022-08-07T12:01:02.087Z,39.37
2022-08-07T12:02:00.013Z,38.96
2022-08-07T12:02:53.766Z,38.86
2022-08-07T12:03:52.520Z,37.48
2022-08-07T12:04:52.642Z,37.08
2022-08-07T12:05:52.380Z,37.43
2022-08-07T12:07:00.354Z,38.44
2022-08-07T12:07:53.599Z,39.23
2022-08-07T12:08:53.674Z,40.01
2022-08-07T12:09:52.333Z,39.20
2022-08-07T12:11:08.382Z,38.98
2022-08-07T12:12:10.026Z,37.41
2022-08-07T12:12:53.284Z,38.01
2022-08-07T12:13:52.333Z,38.19
2022-08-07T12:14:55.383Z,37.70
2022-08-07T12:16:06.849Z,37.40
2022-08-07T12:16:53.230Z,37.40
2022-08-07T12:17:59.205Z,37.30
2022-08-07T12:18:53.219Z,37.49
2022-08-07T12:20:03.294Z,38.49
2022-08-07T12:20:54.092Z,38.27
2022-08-07T12:22:36.323Z,38.17
2022-08-07T12:22:58.256Z,38.07
2022-08-07T12:24:06.808Z,37.68
2022-08-07T12:25:02.597Z,37.70
2022-08-07T12:26:06.234Z,37.40
2022-08-07T12:26:53.107Z,37.79
2022-08-07T12:28:08.486Z,37.79
2022-08-07T12:28:54.051Z,38.68
2022-08-07T12:29:52.675Z,37.71
2022-08-07T12:30:53.181Z,37.41
2022-08-07T12:32:02.583Z,38.40
2022-08-07T12:32:53.049Z,37.71
2022-08-07T12:34:01.018Z,37.40
2022-08-07T12:34:55.719Z,38.09
2022-08-07T12:35:57.995Z,37.60
2022-08-07T12:36:52.959Z,39.18
2022-08-07T12:38:09.013Z,37.48
2022-08-07T12:38:57.515Z,37.99
2022-08-07T12:39:52.988Z,37.89
2022-08-07T12:40:51.961Z,37.89
2022-08-07T12:41:52.123Z,37.71
2022-08-07T12:42:54.902Z,38.01
2022-08-07T12:44:03.586Z,38.11
2022-08-07T12:44:52.862Z,38.39
2022-08-07T12:45:52.513Z,37.70
2022-08-07T12:46:51.901Z,38.27
2022-08-07T12:47:51.825Z,38.29
2022-08-07T12:48:52.920Z,38.59
2022-08-07T12:49:52.986Z,37.68
2022-08-07T12:50:52.051Z,37.87
2022-08-07T12:52:14.601Z,37.96
2022-08-07T12:52:53.099Z,37.36
2022-08-07T12:54:03.021Z,38.17
2022-08-07T12:54:54.936Z,37.46